Time,TemperatureF,DewpointF,PressureIn,WindDirection,WindDirectionDegrees,WindSpeedMPH,WindSpeedGustMPH,Humidity,HourlyPrecipIn,Conditions,Clouds,dailyrainin,SolarRadiationWatts/m^2,SoftwareType,DateUTC
2013-10-25 00:00:00,59.6,47.0,29.13,SW,221,0.0,7.0,63,0.00,,,0.00,0,Wunderground v.1.15,2013-10-24 13:00:00,
2013-10-25 00:01:00,57.6,38.6,29.12,SW,225,1.0,-999.0,49,0.00,,,0.00,0,Wunderground v.1.15,2013-10-24 13:01:00,
2013-10-25 00:06:00,57.6,38.6,29.12,SW,225,1.0,-999.0,49,0.00,,,0.00,0,Wunderground v.1.15,2013-10-24 13:06:00,
2013-10-25 00:10:00,59.1,47.3,29.13,SW,221,0.0,5.0,65,0.00,,,0.00,0,Wunderground v.1.15,2013-10-24 13:10:00,
2013-10-25 00:11:00,57.6,38.6,29.12,SW,225,1.0,-999.0,49,0.00,,,0.00,0,Wunderground v.1.15,2013-10-24 13:11:00,
2013-10-25 00:15:00,59.0,47.7,29.13,SW,221,0.0,5.0,66,0.00,,,0.00,0,Wunderground v.1.15,2013-10-24 13:15:00,
2013-10-25 00:16:00,57.6,38.6,29.12,SW,225,1.0,-999.0,49,0.00,,,0.00,0,Wunderground v.1.15,2013-10-24 13:16:00,
2013-10-25 00:20:00,58.8,47.9,29.13,SW,221,0.0,5.0,67,0.00,,,0.00,0,Wunderground v.1.15,2013-10-24 13:20:00,
2013-10-25 00:21:00,57.6,38.6,29.12,SW,225,1.0,-999.0,49,0.00,,,0.00,0,Wunderground v.1.15,2013-10-24 13:21:00,
2013-10-25 00:25:00,58.6,47.7,29.13,SW,227,0.0,5.0,67,0.00,,,0.00,0,Wunderground v.1.15,2013-10-24 13:25:00,
2013-10-25 00:26:00,57.6,38.6,29.12,SW,225,1.0,-999.0,49,0.00,,,0.00,0,Wunderground v.1.15,2013-10-24 13:26:00,
2013-10-25 00:30:00,58.5,47.6,29.13,SW,227,0.0,5.0,67,0.00,,,0.00,0,Wunderground v.1.15,2013-10-24 13:30:00,
2013-10-25 00:31:00,57.6,38.6,29.12,SW,225,1.0,-999.0,49,0.00,,,0.00,0,Wunderground v.1.15,2013-10-24 13:31:00,
2013-10-25 00:36:00,57.6,38.6,29.12,SW,225,1.0,-999.0,49,0.00,,,0.00,0,Wunderground v.1.15,2013-10-24 13:36:00,
2013-10-25 00:40:00,58.1,46.4,29.13,WSW,250,0.0,2.0,65,0.00,,,0.00,0,Wunderground v.1.15,2013-10-24 13:40:00,
2013-10-25 00:41:00,57.6,38.6,29.12,SW,225,1.0,-999.0,49,0.00,,,0.00,0,Wunderground v.1.15,2013-10-24 13:41:00,
2013-10-25 00:46:00,57.4,37.9,29.12,SW,225,1.0,-999.0,48,0.00,,,0.00,0,Wunderground v.1.15,2013-10-24 13:46:00,
2013-10-25 00:50:00,57.6,43.4,29.13,SW,228,0.0,2.0,59,0.00,,,0.00,0,Wunderground v.1.15,2013-10-24 13:50:00,
2013-10-25 00:51:00,57.4,37.9,29.12,SW,225,1.0,-999.0,48,0.00,,,0.00,0,Wunderground v.1.15,2013-10-24 13:51:00,
2013-10-25 00:55:00,57.6,41.1,29.13,WSW,258,0.0,2.0,54,0.00,,,0.00,0,Wunderground v.1.15,2013-10-24 13:55:00,
2013-10-25 00:56:00,57.4,37.9,29.12,SW,225,1.0,-999.0,48,0.00,,,0.00,0,Wunderground v.1.15,2013-10-24 13:56:00,
2013-10-25 01:00:00,57.6,40.1,29.13,WSW,244,0.0,2.0,52,0.00,,,0.00,0,Wunderground v.1.15,2013-10-24 14:00:00,
2013-10-25 01:01:00,57.4,37.9,29.12,SW,225,1.0,-999.0,48,0.00,,,0.00,0,Wunderground v.1.15,2013-10-24 14:01:00,
2013-10-25 01:06:00,57.4,37.9,29.12,SW,225,1.0,-999.0,48,0.00,,,0.00,0,Wunderground v.1.15,2013-10-24 14:06:00,
2013-10-25 01:11:00,57.4,37.9,29.12,SW,225,1.0,-999.0,48,0.00,,,0.00,0,Wunderground v.1.15,2013-10-24 14:11:00,
2013-10-25 01:16:00,57.0,37.5,29.12,SW,225,1.0,-999.0,48,0.00,,,0.00,0,Wunderground v.1.15,2013-10-24 14:16:00,
2013-10-25 01:21:00,57.0,37.5,29.12,SW,225,1.0,-999.0,48,0.00,,,0.00,0,Wunderground v.1.15,2013-10-24 14:21:00,
2013-10-25 01:26:00,57.0,37.5,29.12,SW,225,1.0,-999.0,48,0.00,,,0.00,0,Wunderground v.1.15,2013-10-24 14:26:00,
2013-10-25 01:31:00,57.0,37.5,29.12,SW,225,1.0,-999.0,48,0.00,,,0.00,0,Wunderground v.1.15,2013-10-24 14:31:00,
2013-10-25 01:36:00,57.0,37.5,29.12,SW,225,1.0,-999.0,48,0.00,,,0.00,0,Wunderground v.1.15,2013-10-24 14:36:00,
2013-10-25 01:41:00,57.0,37.5,29.12,SW,225,1.0,-999.0,48,0.00,,,0.00,0,Wunderground v.1.15,2013-10-24 14:41:00,
2013-10-25 01:46:00,56.7,37.7,29.12,SW,225,1.0,-999.0,49,0.00,,,0.00,0,Wunderground v.1.15,2013-10-24 14:46:00,
2013-10-25 01:51:00,56.7,37.7,29.12,SW,225,1.0,-999.0,49,0.00,,,0.00,0,Wunderground v.1.15,2013-10-24 14:51:00,
2013-10-25 01:56:00,56.7,37.7,29.12,SW,225,1.0,-999.0,49,0.00,,,0.00,0,Wunderground v.1.15,2013-10-24 14:56:00,
2013-10-25 02:01:00,56.7,37.7,29.12,SW,225,1.0,-999.0,49,0.00,,,0.00,0,Wunderground v.1.15,2013-10-24 15:01:00,
2013-10-25 02:06:00,56.7,37.7,29.12,SW,225,1.0,-999.0,49,0.00,,,0.00,0,Wunderground v.1.15,2013-10-24 15:06:00,
2013-10-25 02:11:00,56.7,37.7,29.12,SW,225,1.0,-999.0,49,0.00,,,0.00,0,Wunderground v.1.15,2013-10-24 15:11:00,
2013-10-25 02:16:00,56.2,36.2,29.12,SW,225,1.0,-999.0,47,0.00,,,0.00,0,Wunderground v.1.15,2013-10-24 15:16:00,
2013-10-25 02:21:00,56.2,36.2,29.12,SW,225,1.0,-999.0,47,0.00,,,0.00,0,Wunderground v.1.15,2013-10-24 15:21:00,
2013-10-25 02:26:00,56.2,36.2,29.12,SW,225,1.0,-999.0,47,0.00,,,0.00,0,Wunderground v.1.15,2013-10-24 15:26:00,
2013-10-25 02:31:00,56.2,36.2,29.12,SW,225,1.0,-999.0,47,0.00,,,0.00,0,Wunderground v.1.15,2013-10-24 15:31:00,
2013-10-25 02:36:00,56.2,36.2,29.12,SW,225,1.0,-999.0,47,0.00,,,0.00,0,Wunderground v.1.15,2013-10-24 15:36:00,
2013-10-25 02:41:00,56.2,36.2,29.12,SW,225,1.0,-999.0,47,0.00,,,0.00,0,Wunderground v.1.15,2013-10-24 15:41:00,
2013-10-25 02:46:00,55.4,37.1,29.12,SW,225,1.0,-999.0,50,0.00,,,0.00,0,Wunderground v.1.15,2013-10-24 15:46:00,
2013-10-25 02:51:00,55.4,37.1,29.12,SW,225,1.0,-999.0,50,0.00,,,0.00,0,Wunderground v.1.15,2013-10-24 15:51:00,
2013-10-25 02:56:00,55.4,37.1,29.12,SW,225,1.0,-999.0,50,0.00,,,0.00,0,Wunderground v.1.15,2013-10-24 15:56:00,
2013-10-25 03:01:00,55.4,37.1,29.12,SW,225,1.0,-999.0,50,0.00,,,0.00,0,Wunderground v.1.15,2013-10-24 16:01:00,
2013-10-25 03:06:00,55.4,37.1,29.12,SW,225,1.0,-999.0,50,0.00,,,0.00,0,Wunderground v.1.15,2013-10-24 16:06:00,
2013-10-25 03:11:00,55.4,37.1,29.12,SW,225,1.0,-999.0,50,0.00,,,0.00,0,Wunderground v.1.15,2013-10-24 16:11:00,
2013-10-25 03:16:00,54.6,35.8,29.12,SW,225,1.0,-999.0,49,0.00,,,0.00,0,Wunderground v.1.15,2013-10-24 16:16:00,
2013-10-25 03:21:00,54.6,35.8,29.12,SW,225,1.0,-999.0,49,0.00,,,0.00,0,Wunderground v.1.15,2013-10-24 16:21:00,
2013-10-25 03:26:00,54.6,35.8,29.12,SW,225,1.0,-999.0,49,0.00,,,0.00,0,Wunderground v.1.15,2013-10-24 16:26:00,
2013-10-25 03:31:00,54.6,35.8,29.12,SW,225,1.0,-999.0,49,0.00,,,0.00,0,Wunderground v.1.15,2013-10-24 16:31:00,
2013-10-25 03:36:00,54.6,35.8,29.12,SW,225,1.0,-999.0,49,0.00,,,0.00,0,Wunderground v.1.15,2013-10-24 16:36:00,
2013-10-25 03:41:00,54.6,35.8,29.12,SW,225,1.0,-999.0,49,0.00,,,0.00,0,Wunderground v.1.15,2013-10-24 16:41:00,
2013-10-25 03:46:00,54.5,35.7,29.12,SSW,203,1.0,-999.0,49,0.00,,,0.00,0,Wunderground v.1.15,2013-10-24 16:46:00,
2013-10-25 03:51:00,54.5,35.7,29.12,SSW,203,1.0,-999.0,49,0.00,,,0.00,0,Wunderground v.1.15,2013-10-24 16:51:00,
2013-10-25 03:56:00,54.5,35.7,29.12,SSW,203,1.0,-999.0,49,0.00,,,0.00,0,Wunderground v.1.15,2013-10-24 16:56:00,
2013-10-25 04:01:00,54.5,35.7,29.12,SSW,203,1.0,-999.0,49,0.00,,,0.00,0,Wunderground v.1.15,2013-10-24 17:01:00,
2013-10-25 04:06:00,54.5,35.7,29.12,SSW,203,1.0,-999.0,49,0.00,,,0.00,0,Wunderground v.1.15,2013-10-24 17:06:00,
2013-10-25 04:11:00,54.5,35.7,29.12,SSW,203,1.0,-999.0,49,0.00,,,0.00,0,Wunderground v.1.15,2013-10-24 17:11:00,
2013-10-25 04:16:00,54.1,35.9,29.14,SSW,203,0.0,-999.0,50,0.00,,,0.00,0,Wunderground v.1.15,2013-10-24 17:16:00,
2013-10-25 04:21:00,54.1,35.9,29.14,SSW,203,0.0,-999.0,50,0.00,,,0.00,0,Wunderground v.1.15,2013-10-24 17:21:00,
2013-10-25 04:26:00,54.1,35.9,29.14,SSW,203,0.0,-999.0,50,0.00,,,0.00,0,Wunderground v.1.15,2013-10-24 17:26:00,
2013-10-25 04:31:00,54.1,35.9,29.14,SSW,203,0.0,-999.0,50,0.00,,,0.00,0,Wunderground v.1.15,2013-10-24 17:31:00,
2013-10-25 04:36:00,54.1,35.9,29.14,SSW,203,0.0,-999.0,50,0.00,,,0.00,0,Wunderground v.1.15,2013-10-24 17:36:00,
2013-10-25 04:41:00,54.1,35.9,29.14,SSW,203,0.0,-999.0,50,0.00,,,0.00,0,Wunderground v.1.15,2013-10-24 17:41:00,
2013-10-25 04:46:00,53.6,34.9,29.14,SW,225,1.0,-999.0,49,0.00,,,0.00,0,Wunderground v.1.15,2013-10-24 17:46:00,
2013-10-25 04:51:00,53.6,34.9,29.14,SW,225,1.0,-999.0,49,0.00,,,0.00,0,Wunderground v.1.15,2013-10-24 17:51:00,
2013-10-25 04:56:00,53.6,34.9,29.14,SW,225,1.0,-999.0,49,0.00,,,0.00,0,Wunderground v.1.15,2013-10-24 17:56:00,
2013-10-25 05:01:00,53.6,34.9,29.14,SW,225,1.0,-999.0,49,0.00,,,0.00,0,Wunderground v.1.15,2013-10-24 18:01:00,
2013-10-25 05:06:00,53.6,34.9,29.14,SW,225,1.0,-999.0,49,0.00,,,0.00,0,Wunderground v.1.15,2013-10-24 18:06:00,
2013-10-25 05:11:00,53.6,34.9,29.14,SW,225,1.0,-999.0,49,0.00,,,0.00,0,Wunderground v.1.15,2013-10-24 18:11:00,
2013-10-25 05:16:00,53.5,34.8,29.15,SW,225,1.0,-999.0,49,0.00,,,0.00,13,Wunderground v.1.15,2013-10-24 18:16:00,
2013-10-25 05:21:00,53.5,34.8,29.15,SW,225,1.0,-999.0,49,0.00,,,0.00,13,Wunderground v.1.15,2013-10-24 18:21:00,
2013-10-25 05:26:00,53.5,34.8,29.15,SW,225,1.0,-999.0,49,0.00,,,0.00,13,Wunderground v.1.15,2013-10-24 18:26:00,
2013-10-25 05:31:00,53.5,34.8,29.15,SW,225,1.0,-999.0,49,0.00,,,0.00,13,Wunderground v.1.15,2013-10-24 18:31:00,
2013-10-25 05:36:00,53.5,34.8,29.15,SW,225,1.0,-999.0,49,0.00,,,0.00,13,Wunderground v.1.15,2013-10-24 18:36:00,
2013-10-25 05:41:00,53.5,34.8,29.15,SW,225,1.0,-999.0,49,0.00,,,0.00,13,Wunderground v.1.15,2013-10-24 18:41:00,
2013-10-25 05:46:00,53.5,35.3,29.16,SSW,203,0.0,-999.0,50,0.00,,,0.00,31,Wunderground v.1.15,2013-10-24 18:46:00,
2013-10-25 05:51:00,53.5,35.3,29.16,SSW,203,0.0,-999.0,50,0.00,,,0.00,31,Wunderground v.1.15,2013-10-24 18:51:00,
2013-10-25 05:56:00,53.5,35.3,29.16,SSW,203,0.0,-999.0,50,0.00,,,0.00,31,Wunderground v.1.15,2013-10-24 18:56:00,
2013-10-25 06:01:00,53.5,35.3,29.16,SSW,203,0.0,-999.0,50,0.00,,,0.00,31,Wunderground v.1.15,2013-10-24 19:01:00,
2013-10-25 06:06:00,53.5,35.3,29.16,SSW,203,0.0,-999.0,50,0.00,,,0.00,31,Wunderground v.1.15,2013-10-24 19:06:00,
2013-10-25 06:11:00,53.5,35.3,29.16,SSW,203,0.0,-999.0,50,0.00,,,0.00,31,Wunderground v.1.15,2013-10-24 19:11:00,
2013-10-25 06:16:00,53.8,35.1,29.16,SW,225,1.0,-999.0,49,0.00,,,0.00,48,Wunderground v.1.15,2013-10-24 19:16:00,
2013-10-25 06:21:00,53.8,35.1,29.16,SW,225,1.0,-999.0,49,0.00,,,0.00,48,Wunderground v.1.15,2013-10-24 19:21:00,
2013-10-25 06:26:00,53.8,35.1,29.16,SW,225,1.0,-999.0,49,0.00,,,0.00,48,Wunderground v.1.15,2013-10-24 19:26:00,
2013-10-25 06:31:00,53.8,35.1,29.16,SW,225,1.0,-999.0,49,0.00,,,0.00,48,Wunderground v.1.15,2013-10-24 19:31:00,
2013-10-25 06:36:00,53.8,35.1,29.16,SW,225,1.0,-999.0,49,0.00,,,0.00,48,Wunderground v.1.15,2013-10-24 19:36:00,
2013-10-25 06:41:00,53.8,35.1,29.16,SW,225,1.0,-999.0,49,0.00,,,0.00,48,Wunderground v.1.15,2013-10-24 19:41:00,
2013-10-25 06:46:00,55.5,34.5,29.17,SW,225,1.0,-999.0,45,0.00,,,0.00,92,Wunderground v.1.15,2013-10-24 19:46:00,
2013-10-25 06:51:00,55.5,34.5,29.17,SW,225,1.0,-999.0,45,0.00,,,0.00,92,Wunderground v.1.15,2013-10-24 19:51:00,
2013-10-25 06:56:00,55.5,34.5,29.17,SW,225,1.0,-999.0,45,0.00,,,0.00,92,Wunderground v.1.15,2013-10-24 19:56:00,
2013-10-25 07:01:00,55.5,34.5,29.17,SW,225,1.0,-999.0,45,0.00,,,0.00,92,Wunderground v.1.15,2013-10-24 20:01:00,
2013-10-25 07:06:00,55.5,34.5,29.17,SW,225,1.0,-999.0,45,0.00,,,0.00,92,Wunderground v.1.15,2013-10-24 20:06:00,
2013-10-25 07:11:00,55.5,34.5,29.17,SW,225,1.0,-999.0,45,0.00,,,0.00,92,Wunderground v.1.15,2013-10-24 20:11:00,
2013-10-25 07:16:00,57.4,33.3,29.17,SSW,203,2.0,-999.0,40,0.00,,,0.00,258,Wunderground v.1.15,2013-10-24 20:16:00,
2013-10-25 07:21:00,57.4,33.3,29.17,SSW,203,2.0,-999.0,40,0.00,,,0.00,258,Wunderground v.1.15,2013-10-24 20:21:00,
2013-10-25 07:26:00,57.4,33.3,29.17,SSW,203,2.0,-999.0,40,0.00,,,0.00,258,Wunderground v.1.15,2013-10-24 20:26:00,
2013-10-25 07:31:00,57.4,33.3,29.17,SSW,203,2.0,-999.0,40,0.00,,,0.00,258,Wunderground v.1.15,2013-10-24 20:31:00,
2013-10-25 07:36:00,57.4,33.3,29.17,SSW,203,2.0,-999.0,40,0.00,,,0.00,258,Wunderground v.1.15,2013-10-24 20:36:00,
2013-10-25 07:41:00,57.4,33.3,29.17,SSW,203,2.0,-999.0,40,0.00,,,0.00,258,Wunderground v.1.15,2013-10-24 20:41:00,
2013-10-25 07:46:00,59.8,34.1,29.18,West,270,2.0,-999.0,38,0.00,,,0.00,504,Wunderground v.1.15,2013-10-24 20:46:00,
2013-10-25 07:51:00,59.8,34.1,29.18,West,270,2.0,-999.0,38,0.00,,,0.00,504,Wunderground v.1.15,2013-10-24 20:51:00,
2013-10-25 07:56:00,59.8,34.1,29.18,West,270,2.0,-999.0,38,0.00,,,0.00,504,Wunderground v.1.15,2013-10-24 20:56:00,
2013-10-25 08:01:00,59.8,34.1,29.18,West,270,2.0,-999.0,38,0.00,,,0.00,504,Wunderground v.1.15,2013-10-24 21:01:00,
2013-10-25 08:06:00,59.8,34.1,29.18,West,270,2.0,-999.0,38,0.00,,,0.00,504,Wunderground v.1.15,2013-10-24 21:06:00,
2013-10-25 08:11:00,59.8,34.1,29.18,West,270,2.0,-999.0,38,0.00,,,0.00,504,Wunderground v.1.15,2013-10-24 21:11:00,
2013-10-25 08:16:00,62.2,33.5,29.18,West,270,2.0,-999.0,34,0.00,,,0.00,641,Wunderground v.1.15,2013-10-24 21:16:00,
2013-10-25 08:21:00,62.2,33.5,29.18,West,270,2.0,-999.0,34,0.00,,,0.00,641,Wunderground v.1.15,2013-10-24 21:21:00,
2013-10-25 08:26:00,62.2,33.5,29.18,West,270,2.0,-999.0,34,0.00,,,0.00,641,Wunderground v.1.15,2013-10-24 21:26:00,
2013-10-25 08:31:00,62.2,33.5,29.18,West,270,2.0,-999.0,34,0.00,,,0.00,641,Wunderground v.1.15,2013-10-24 21:31:00,
2013-10-25 08:36:00,62.2,33.5,29.18,West,270,2.0,-999.0,34,0.00,,,0.00,641,Wunderground v.1.15,2013-10-24 21:36:00,
2013-10-25 08:41:00,62.2,33.5,29.18,West,270,2.0,-999.0,34,0.00,,,0.00,641,Wunderground v.1.15,2013-10-24 21:41:00,
2013-10-25 08:45:00,59.9,34.9,29.18,SW,223,2.0,2.0,39,0.00,,,0.00,540,Wunderground v.1.15,2013-10-24 21:45:00,
2013-10-25 08:46:00,63.6,31.6,29.18,SW,225,1.0,-999.0,30,0.00,,,0.00,728,Wunderground v.1.15,2013-10-24 21:46:00,
2013-10-25 08:50:00,60.0,35.6,29.18,WSW,246,2.0,4.0,40,0.00,,,0.00,555,Wunderground v.1.15,2013-10-24 21:50:00,
2013-10-25 08:51:00,63.6,31.6,29.18,SW,225,1.0,-999.0,30,0.00,,,0.00,728,Wunderground v.1.15,2013-10-24 21:51:00,
2013-10-25 08:55:00,60.5,35.4,29.18,West,271,2.0,9.0,39,0.00,,,0.00,570,Wunderground v.1.15,2013-10-24 21:55:00,
2013-10-25 08:56:00,63.6,31.6,29.18,SW,225,1.0,-999.0,30,0.00,,,0.00,728,Wunderground v.1.15,2013-10-24 21:56:00,
2013-10-25 09:01:00,63.6,31.6,29.18,SW,225,1.0,-999.0,30,0.00,,,0.00,728,Wunderground v.1.15,2013-10-24 22:01:00,
2013-10-25 09:05:00,61.6,35.7,29.18,West,266,2.0,9.0,38,0.00,,,0.00,605,Wunderground v.1.15,2013-10-24 22:05:00,
2013-10-25 09:06:00,63.6,31.6,29.18,SW,225,1.0,-999.0,30,0.00,,,0.00,728,Wunderground v.1.15,2013-10-24 22:06:00,
2013-10-25 09:11:00,63.6,31.6,29.18,SW,225,1.0,-999.0,30,0.00,,,0.00,728,Wunderground v.1.15,2013-10-24 22:11:00,
2013-10-25 09:15:00,62.0,34.0,29.18,SSW,196,2.0,8.0,35,0.00,,,0.00,638,Wunderground v.1.15,2013-10-24 22:15:00,
2013-10-25 09:16:00,66.9,32.7,29.18,NNW,338,1.0,-999.0,28,0.00,,,0.00,803,Wunderground v.1.15,2013-10-24 22:16:00,
2013-10-25 09:20:00,62.1,34.1,29.18,West,280,2.0,2.0,35,0.00,,,0.00,650,Wunderground v.1.15,2013-10-24 22:20:00,
2013-10-25 09:21:00,66.9,32.7,29.18,NNW,338,1.0,-999.0,28,0.00,,,0.00,803,Wunderground v.1.15,2013-10-24 22:21:00,
2013-10-25 09:25:00,62.6,34.5,29.18,WSW,244,2.0,8.0,35,0.00,,,0.00,670,Wunderground v.1.15,2013-10-24 22:25:00,
2013-10-25 09:26:00,66.9,32.7,29.18,NNW,338,1.0,-999.0,28,0.00,,,0.00,803,Wunderground v.1.15,2013-10-24 22:26:00,
2013-10-25 09:31:00,66.9,32.7,29.18,NNW,338,1.0,-999.0,28,0.00,,,0.00,803,Wunderground v.1.15,2013-10-24 22:31:00,
2013-10-25 09:36:00,63.5,33.9,29.19,SW,224,2.0,7.0,33,0.00,,,0.00,694,Wunderground v.1.15,2013-10-24 22:36:00,
2013-10-25 09:41:00,66.9,32.7,29.18,NNW,338,1.0,-999.0,28,0.00,,,0.00,803,Wunderground v.1.15,2013-10-24 22:41:00,
2013-10-25 09:45:00,63.0,32.7,29.19,SE,134,2.0,7.0,32,0.00,,,0.00,724,Wunderground v.1.15,2013-10-24 22:45:00,
2013-10-25 09:46:00,69.0,34.5,29.17,NW,315,2.0,-999.0,28,0.00,,,0.00,875,Wunderground v.1.15,2013-10-24 22:46:00,
2013-10-25 09:50:00,63.7,34.0,29.18,SW,225,1.0,7.0,33,0.00,,,0.00,737,Wunderground v.1.15,2013-10-24 22:50:00,
2013-10-25 09:51:00,69.0,34.5,29.17,NW,315,2.0,-999.0,28,0.00,,,0.00,875,Wunderground v.1.15,2013-10-24 22:51:00,
2013-10-25 09:56:00,69.0,34.5,29.17,NW,315,2.0,-999.0,28,0.00,,,0.00,875,Wunderground v.1.15,2013-10-24 22:56:00,
2013-10-25 10:00:00,64.6,34.1,29.18,SSW,204,1.0,7.0,32,0.00,,,0.00,765,Wunderground v.1.15,2013-10-24 23:00:00,
2013-10-25 10:01:00,69.0,34.5,29.17,NW,315,2.0,-999.0,28,0.00,,,0.00,875,Wunderground v.1.15,2013-10-24 23:01:00,
2013-10-25 10:05:00,64.8,32.6,29.18,WNW,302,1.0,8.0,30,0.00,,,0.00,777,Wunderground v.1.15,2013-10-24 23:05:00,
2013-10-25 10:06:00,69.0,34.5,29.17,NW,315,2.0,-999.0,28,0.00,,,0.00,875,Wunderground v.1.15,2013-10-24 23:06:00,
2013-10-25 10:10:00,65.8,33.5,29.18,NNW,344,1.0,8.0,30,0.00,,,0.00,788,Wunderground v.1.15,2013-10-24 23:10:00,
2013-10-25 10:11:00,69.0,34.5,29.17,NW,315,2.0,-999.0,28,0.00,,,0.00,875,Wunderground v.1.15,2013-10-24 23:11:00,
2013-10-25 10:16:00,69.1,35.5,29.16,NNE,23,2.0,-999.0,29,0.00,,,0.00,924,Wunderground v.1.15,2013-10-24 23:16:00,
2013-10-25 10:20:00,67.8,33.5,29.18,NW,323,1.0,8.0,28,0.00,,,0.00,814,Wunderground v.1.15,2013-10-24 23:20:00,
2013-10-25 10:21:00,69.1,35.5,29.16,NNE,23,2.0,-999.0,29,0.00,,,0.00,924,Wunderground v.1.15,2013-10-24 23:21:00,
2013-10-25 10:25:00,68.2,33.8,29.18,NNW,333,1.0,8.0,28,0.00,,,0.00,833,Wunderground v.1.15,2013-10-24 23:25:00,
2013-10-25 10:26:00,69.1,35.5,29.16,NNE,23,2.0,-999.0,29,0.00,,,0.00,924,Wunderground v.1.15,2013-10-24 23:26:00,
2013-10-25 10:30:00,68.4,34.0,29.18,East,95,1.0,1.0,28,0.00,,,0.00,838,Wunderground v.1.15,2013-10-24 23:30:00,
2013-10-25 10:31:00,69.1,35.5,29.16,NNE,23,2.0,-999.0,29,0.00,,,0.00,924,Wunderground v.1.15,2013-10-24 23:31:00,
2013-10-25 10:36:00,69.1,35.5,29.16,NNE,23,2.0,-999.0,29,0.00,,,0.00,924,Wunderground v.1.15,2013-10-24 23:36:00,
2013-10-25 10:40:00,68.9,36.2,29.18,West,277,1.0,9.0,30,0.00,,,0.00,849,Wunderground v.1.15,2013-10-24 23:40:00,
2013-10-25 10:41:00,69.1,35.5,29.16,NNE,23,2.0,-999.0,29,0.00,,,0.00,924,Wunderground v.1.15,2013-10-24 23:41:00,
2013-10-25 10:45:00,70.1,36.3,29.18,NW,306,1.0,9.0,29,0.00,,,0.00,872,Wunderground v.1.15,2013-10-24 23:45:00,
2013-10-25 10:46:00,70.0,39.6,29.15,NE,45,2.0,-999.0,33,0.00,,,0.00,963,Wunderground v.1.15,2013-10-24 23:46:00,
2013-10-25 10:50:00,69.4,34.9,29.17,WNW,288,2.0,9.0,28,0.00,,,0.00,881,Wunderground v.1.15,2013-10-24 23:50:00,
2013-10-25 10:51:00,70.0,39.6,29.15,NE,45,2.0,-999.0,33,0.00,,,0.00,963,Wunderground v.1.15,2013-10-24 23:51:00,
2013-10-25 10:56:00,70.0,39.6,29.15,NE,45,2.0,-999.0,33,0.00,,,0.00,963,Wunderground v.1.15,2013-10-24 23:56:00,
2013-10-25 11:00:00,69.2,34.7,29.17,NW,304,2.0,9.0,28,0.00,,,0.00,905,Wunderground v.1.15,2013-10-25 00:00:00,
2013-10-25 11:01:00,70.0,39.6,29.15,NE,45,2.0,-999.0,33,0.00,,,0.00,963,Wunderground v.1.15,2013-10-25 00:01:00,
2013-10-25 11:05:00,68.7,34.3,29.17,NW,313,3.0,9.0,28,0.00,,,0.00,905,Wunderground v.1.15,2013-10-25 00:05:00,
2013-10-25 11:06:00,70.0,39.6,29.15,NE,45,2.0,-999.0,33,0.00,,,0.00,963,Wunderground v.1.15,2013-10-25 00:06:00,
2013-10-25 11:10:00,68.7,35.1,29.17,West,273,3.0,3.0,29,0.00,,,0.00,905,Wunderground v.1.15,2013-10-25 00:10:00,
2013-10-25 11:11:00,70.0,39.6,29.15,NE,45,2.0,-999.0,33,0.00,,,0.00,963,Wunderground v.1.15,2013-10-25 00:11:00,
2013-10-25 11:15:00,69.8,36.1,29.16,East,90,2.0,4.0,29,0.00,,,0.00,919,Wunderground v.1.15,2013-10-25 00:15:00,
2013-10-25 11:16:00,69.5,39.1,29.13,NE,45,3.0,-999.0,33,0.00,,,0.00,975,Wunderground v.1.15,2013-10-25 00:16:00,
2013-10-25 11:21:00,69.5,39.1,29.13,NE,45,3.0,-999.0,33,0.00,,,0.00,975,Wunderground v.1.15,2013-10-25 00:21:00,
2013-10-25 11:25:00,68.9,37.0,29.16,NNE,25,3.0,9.0,31,0.00,,,0.00,942,Wunderground v.1.15,2013-10-25 00:25:00,
2013-10-25 11:26:00,69.5,39.1,29.13,NE,45,3.0,-999.0,33,0.00,,,0.00,975,Wunderground v.1.15,2013-10-25 00:26:00,
2013-10-25 11:30:00,70.1,36.3,29.16,NE,35,1.0,1.0,29,0.00,,,0.00,947,Wunderground v.1.15,2013-10-25 00:30:00,
2013-10-25 11:31:00,69.5,39.1,29.13,NE,45,3.0,-999.0,33,0.00,,,0.00,975,Wunderground v.1.15,2013-10-25 00:31:00,
2013-10-25 11:36:00,69.5,39.1,29.13,NE,45,3.0,-999.0,33,0.00,,,0.00,975,Wunderground v.1.15,2013-10-25 00:36:00,
2013-10-25 11:40:00,71.1,39.7,29.15,ESE,113,1.0,1.0,32,0.00,,,0.00,963,Wunderground v.1.15,2013-10-25 00:40:00,
2013-10-25 11:41:00,69.5,39.1,29.13,NE,45,3.0,-999.0,33,0.00,,,0.00,975,Wunderground v.1.15,2013-10-25 00:41:00,
2013-10-25 11:45:00,70.7,38.6,29.16,SW,225,1.0,4.0,31,0.00,,,0.00,962,Wunderground v.1.15,2013-10-25 00:45:00,
2013-10-25 11:46:00,70.5,41.5,29.12,NE,45,2.0,-999.0,35,0.00,,,0.00,975,Wunderground v.1.15,2013-10-25 00:46:00,
2013-10-25 11:50:00,69.0,38.7,29.15,SW,222,2.0,10.0,33,0.00,,,0.00,967,Wunderground v.1.15,2013-10-25 00:50:00,
2013-10-25 11:51:00,70.5,41.5,29.12,NE,45,2.0,-999.0,35,0.00,,,0.00,975,Wunderground v.1.15,2013-10-25 00:51:00,
2013-10-25 11:56:00,70.5,41.5,29.12,NE,45,2.0,-999.0,35,0.00,,,0.00,975,Wunderground v.1.15,2013-10-25 00:56:00,
2013-10-25 12:00:00,69.4,39.0,29.15,ENE,59,3.0,3.0,33,0.00,,,0.00,969,Wunderground v.1.15,2013-10-25 01:00:00,
2013-10-25 12:01:00,70.5,41.5,29.12,NE,45,2.0,-999.0,35,0.00,,,0.00,975,Wunderground v.1.15,2013-10-25 01:01:00,
2013-10-25 12:05:00,69.4,39.8,29.15,NE,55,4.0,6.0,34,0.00,,,0.00,969,Wunderground v.1.15,2013-10-25 01:05:00,
2013-10-25 12:06:00,70.5,41.5,29.12,NE,45,2.0,-999.0,35,0.00,,,0.00,975,Wunderground v.1.15,2013-10-25 01:06:00,
2013-10-25 12:10:00,69.6,39.2,29.14,ENE,71,4.0,4.0,33,0.00,,,0.00,976,Wunderground v.1.15,2013-10-25 01:10:00,
2013-10-25 12:11:00,70.5,41.5,29.12,NE,45,2.0,-999.0,35,0.00,,,0.00,975,Wunderground v.1.15,2013-10-25 01:11:00,
2013-10-25 12:16:00,71.0,43.4,29.11,NE,45,2.0,-999.0,37,0.00,,,0.00,951,Wunderground v.1.15,2013-10-25 01:16:00,
2013-10-25 12:20:00,69.4,39.8,29.14,NNE,19,2.0,2.0,34,0.00,,,0.00,977,Wunderground v.1.15,2013-10-25 01:20:00,
2013-10-25 12:21:00,71.0,43.4,29.11,NE,45,2.0,-999.0,37,0.00,,,0.00,951,Wunderground v.1.15,2013-10-25 01:21:00,
2013-10-25 12:25:00,69.6,40.0,29.14,South,173,3.0,3.0,34,0.00,,,0.00,976,Wunderground v.1.15,2013-10-25 01:25:00,
2013-10-25 12:26:00,71.0,43.4,29.11,NE,45,2.0,-999.0,37,0.00,,,0.00,951,Wunderground v.1.15,2013-10-25 01:26:00,
2013-10-25 12:30:00,70.0,40.3,29.13,WNW,287,2.0,2.0,34,0.00,,,0.00,976,Wunderground v.1.15,2013-10-25 01:30:00,
2013-10-25 12:31:00,71.0,43.4,29.11,NE,45,2.0,-999.0,37,0.00,,,0.00,951,Wunderground v.1.15,2013-10-25 01:31:00,
2013-10-25 12:36:00,71.0,43.4,29.11,NE,45,2.0,-999.0,37,0.00,,,0.00,951,Wunderground v.1.15,2013-10-25 01:36:00,
2013-10-25 12:40:00,70.7,40.9,29.13,NNE,14,2.0,12.0,34,0.00,,,0.00,976,Wunderground v.1.15,2013-10-25 01:40:00,
2013-10-25 12:41:00,71.0,43.4,29.11,NE,45,2.0,-999.0,37,0.00,,,0.00,951,Wunderground v.1.15,2013-10-25 01:41:00,
2013-10-25 12:45:00,70.5,40.0,29.13,NE,49,2.0,12.0,33,0.00,,,0.00,979,Wunderground v.1.15,2013-10-25 01:45:00,
2013-10-25 12:46:00,70.5,43.7,29.09,NE,45,3.0,-999.0,38,0.00,,,0.00,919,Wunderground v.1.15,2013-10-25 01:46:00,
2013-10-25 12:51:00,70.5,43.7,29.09,NE,45,3.0,-999.0,38,0.00,,,0.00,919,Wunderground v.1.15,2013-10-25 01:51:00,
2013-10-25 12:55:00,70.3,41.3,29.12,NE,40,3.0,12.0,35,0.00,,,0.00,970,Wunderground v.1.15,2013-10-25 01:55:00,
2013-10-25 12:56:00,70.5,43.7,29.09,NE,45,3.0,-999.0,38,0.00,,,0.00,919,Wunderground v.1.15,2013-10-25 01:56:00,
2013-10-25 13:00:00,70.5,41.5,29.12,NE,43,2.0,12.0,35,0.00,,,0.00,960,Wunderground v.1.15,2013-10-25 02:00:00,
2013-10-25 13:01:00,70.5,43.7,29.09,NE,45,3.0,-999.0,38,0.00,,,0.00,919,Wunderground v.1.15,2013-10-25 02:01:00,
2013-10-25 13:05:00,70.4,41.4,29.12,North,5,2.0,12.0,35,0.00,,,0.00,967,Wunderground v.1.15,2013-10-25 02:05:00,
2013-10-25 13:06:00,70.5,43.7,29.09,NE,45,3.0,-999.0,38,0.00,,,0.00,919,Wunderground v.1.15,2013-10-25 02:06:00,
2013-10-25 13:10:00,70.6,42.3,29.12,SSE,157,2.0,2.0,36,0.00,,,0.00,958,Wunderground v.1.15,2013-10-25 02:10:00,
2013-10-25 13:11:00,70.5,43.7,29.09,NE,45,3.0,-999.0,38,0.00,,,0.00,919,Wunderground v.1.15,2013-10-25 02:11:00,
2013-10-25 13:15:00,71.1,42.0,29.12,NNE,20,1.0,3.0,35,0.00,,,0.00,956,Wunderground v.1.15,2013-10-25 02:15:00,
2013-10-25 13:16:00,71.5,44.5,29.08,NE,45,2.0,-999.0,38,0.00,,,0.00,878,Wunderground v.1.15,2013-10-25 02:16:00,
2013-10-25 13:21:00,71.5,44.5,29.08,NE,45,2.0,-999.0,38,0.00,,,0.00,878,Wunderground v.1.15,2013-10-25 02:21:00,
2013-10-25 13:25:00,71.4,42.3,29.11,ENE,63,2.0,10.0,35,0.00,,,0.00,942,Wunderground v.1.15,2013-10-25 02:25:00,
2013-10-25 13:26:00,71.5,44.5,29.08,NE,45,2.0,-999.0,38,0.00,,,0.00,878,Wunderground v.1.15,2013-10-25 02:26:00,
2013-10-25 13:30:00,70.6,42.3,29.11,SE,132,2.0,2.0,36,0.00,,,0.00,930,Wunderground v.1.15,2013-10-25 02:30:00,
2013-10-25 13:31:00,71.5,44.5,29.08,NE,45,2.0,-999.0,38,0.00,,,0.00,878,Wunderground v.1.15,2013-10-25 02:31:00,
2013-10-25 13:36:00,71.5,44.5,29.08,NE,45,2.0,-999.0,38,0.00,,,0.00,878,Wunderground v.1.15,2013-10-25 02:36:00,
2013-10-25 13:40:00,70.7,43.8,29.10,NNE,28,2.0,8.0,38,0.00,,,0.00,923,Wunderground v.1.15,2013-10-25 02:40:00,
2013-10-25 13:41:00,71.5,44.5,29.08,NE,45,2.0,-999.0,38,0.00,,,0.00,878,Wunderground v.1.15,2013-10-25 02:41:00,
2013-10-25 13:45:00,71.2,43.6,29.10,NE,53,3.0,8.0,37,0.00,,,0.00,921,Wunderground v.1.15,2013-10-25 02:45:00,
2013-10-25 13:46:00,71.7,46.1,29.06,NNE,23,2.0,-999.0,40,0.00,,,0.00,817,Wunderground v.1.15,2013-10-25 02:46:00,
2013-10-25 13:50:00,70.3,43.5,29.10,NNW,340,3.0,3.0,38,0.00,,,0.00,904,Wunderground v.1.15,2013-10-25 02:50:00,
2013-10-25 13:51:00,71.7,46.1,29.06,NNE,23,2.0,-999.0,40,0.00,,,0.00,817,Wunderground v.1.15,2013-10-25 02:51:00,
2013-10-25 13:55:00,70.5,43.7,29.10,NNE,32,2.0,6.0,38,0.00,,,0.00,911,Wunderground v.1.15,2013-10-25 02:55:00,
2013-10-25 13:56:00,71.7,46.1,29.06,NNE,23,2.0,-999.0,40,0.00,,,0.00,817,Wunderground v.1.15,2013-10-25 02:56:00,
2013-10-25 14:01:00,71.7,46.1,29.06,NNE,23,2.0,-999.0,40,0.00,,,0.00,817,Wunderground v.1.15,2013-10-25 03:01:00,
2013-10-25 14:05:00,70.9,44.0,29.09,SW,227,3.0,10.0,38,0.00,,,0.00,907,Wunderground v.1.15,2013-10-25 03:05:00,
2013-10-25 14:06:00,71.7,46.1,29.06,NNE,23,2.0,-999.0,40,0.00,,,0.00,817,Wunderground v.1.15,2013-10-25 03:06:00,
2013-10-25 14:10:00,71.8,43.4,29.09,ENE,74,2.0,10.0,36,0.00,,,0.00,891,Wunderground v.1.15,2013-10-25 03:10:00,
2013-10-25 14:11:00,71.7,46.1,29.06,NNE,23,2.0,-999.0,40,0.00,,,0.00,817,Wunderground v.1.15,2013-10-25 03:11:00,
2013-10-25 14:15:00,71.7,44.7,29.08,ENE,74,2.0,10.0,38,0.00,,,0.00,881,Wunderground v.1.15,2013-10-25 03:15:00,
2013-10-25 14:16:00,70.8,46.6,29.06,NE,45,3.0,-999.0,42,0.00,,,0.00,738,Wunderground v.1.15,2013-10-25 03:16:00,
2013-10-25 14:20:00,71.7,44.0,29.08,NE,39,3.0,3.0,37,0.00,,,0.00,870,Wunderground v.1.15,2013-10-25 03:20:00,
2013-10-25 14:21:00,70.8,46.6,29.06,NE,45,3.0,-999.0,42,0.00,,,0.00,738,Wunderground v.1.15,2013-10-25 03:21:00,
2013-10-25 14:26:00,70.8,46.6,29.06,NE,45,3.0,-999.0,42,0.00,,,0.00,738,Wunderground v.1.15,2013-10-25 03:26:00,
2013-10-25 14:30:00,71.3,44.4,29.08,WSW,238,2.0,2.0,38,0.00,,,0.00,856,Wunderground v.1.15,2013-10-25 03:30:00,
2013-10-25 14:31:00,70.8,46.6,29.06,NE,45,3.0,-999.0,42,0.00,,,0.00,738,Wunderground v.1.15,2013-10-25 03:31:00,
2013-10-25 14:36:00,70.8,46.6,29.06,NE,45,3.0,-999.0,42,0.00,,,0.00,738,Wunderground v.1.15,2013-10-25 03:36:00,
2013-10-25 14:40:00,71.4,44.5,29.07,NE,55,2.0,2.0,38,0.00,,,0.00,833,Wunderground v.1.15,2013-10-25 03:40:00,
2013-10-25 14:41:00,70.8,46.6,29.06,NE,45,3.0,-999.0,42,0.00,,,0.00,738,Wunderground v.1.15,2013-10-25 03:41:00,
2013-10-25 14:45:00,71.6,43.9,29.07,South,175,1.0,12.0,37,0.00,,,0.00,821,Wunderground v.1.15,2013-10-25 03:45:00,
2013-10-25 14:46:00,69.4,49.4,29.05,ENE,68,5.0,-999.0,49,0.00,,,0.00,636,Wunderground v.1.15,2013-10-25 03:46:00,
2013-10-25 14:50:00,72.6,45.5,29.07,NNE,32,1.0,12.0,38,0.00,,,0.00,809,Wunderground v.1.15,2013-10-25 03:50:00,
2013-10-25 14:51:00,69.4,49.4,29.05,ENE,68,5.0,-999.0,49,0.00,,,0.00,636,Wunderground v.1.15,2013-10-25 03:51:00,
2013-10-25 14:56:00,69.4,49.4,29.05,ENE,68,5.0,-999.0,49,0.00,,,0.00,636,Wunderground v.1.15,2013-10-25 03:56:00,
2013-10-25 15:00:00,71.1,44.9,29.06,NE,40,3.0,12.0,39,0.00,,,0.00,788,Wunderground v.1.15,2013-10-25 04:00:00,
2013-10-25 15:01:00,69.4,49.4,29.05,ENE,68,5.0,-999.0,49,0.00,,,0.00,636,Wunderground v.1.15,2013-10-25 04:01:00,
2013-10-25 15:05:00,71.2,44.3,29.06,NE,36,3.0,12.0,38,0.00,,,0.00,773,Wunderground v.1.15,2013-10-25 04:05:00,
2013-10-25 15:06:00,69.4,49.4,29.05,ENE,68,5.0,-999.0,49,0.00,,,0.00,636,Wunderground v.1.15,2013-10-25 04:06:00,
2013-10-25 15:10:00,71.2,44.3,29.06,East,81,2.0,2.0,38,0.00,,,0.00,754,Wunderground v.1.15,2013-10-25 04:10:00,
2013-10-25 15:11:00,69.4,49.4,29.05,ENE,68,5.0,-999.0,49,0.00,,,0.00,636,Wunderground v.1.15,2013-10-25 04:11:00,
2013-10-25 15:15:00,70.6,45.7,29.06,NE,34,3.0,6.0,41,0.00,,,0.00,745,Wunderground v.1.15,2013-10-25 04:15:00,
2013-10-25 15:16:00,68.5,49.1,29.05,ENE,68,5.0,-999.0,50,0.00,,,0.00,516,Wunderground v.1.15,2013-10-25 04:16:00,
2013-10-25 15:20:00,70.7,46.5,29.06,ENE,65,3.0,10.0,42,0.00,,,0.00,728,Wunderground v.1.15,2013-10-25 04:20:00,
2013-10-25 15:21:00,68.5,49.1,29.05,ENE,68,5.0,-999.0,50,0.00,,,0.00,516,Wunderground v.1.15,2013-10-25 04:21:00,
2013-10-25 15:25:00,70.5,45.7,29.06,NNE,15,4.0,10.0,41,0.00,,,0.00,715,Wunderground v.1.15,2013-10-25 04:25:00,
2013-10-25 15:26:00,68.5,49.1,29.05,ENE,68,5.0,-999.0,50,0.00,,,0.00,516,Wunderground v.1.15,2013-10-25 04:26:00,
2013-10-25 15:30:00,70.4,45.6,29.06,SE,130,4.0,4.0,41,0.00,,,0.00,687,Wunderground v.1.15,2013-10-25 04:30:00,
2013-10-25 15:31:00,68.5,49.1,29.05,ENE,68,5.0,-999.0,50,0.00,,,0.00,516,Wunderground v.1.15,2013-10-25 04:31:00,
2013-10-25 15:36:00,68.5,49.1,29.05,ENE,68,5.0,-999.0,50,0.00,,,0.00,516,Wunderground v.1.15,2013-10-25 04:36:00,
2013-10-25 15:40:00,70.3,46.7,29.05,NE,55,4.0,13.0,43,0.00,,,0.00,647,Wunderground v.1.15,2013-10-25 04:40:00,
2013-10-25 15:41:00,68.5,49.1,29.05,ENE,68,5.0,-999.0,50,0.00,,,0.00,516,Wunderground v.1.15,2013-10-25 04:41:00,
2013-10-25 15:45:00,69.4,46.5,29.05,East,81,5.0,13.0,44,0.00,,,0.00,659,Wunderground v.1.15,2013-10-25 04:45:00,
2013-10-25 15:46:00,68.3,51.0,29.04,ENE,68,4.0,-999.0,54,0.00,,,0.00,420,Wunderground v.1.15,2013-10-25 04:46:00,
2013-10-25 15:51:00,68.3,51.0,29.04,ENE,68,4.0,-999.0,54,0.00,,,0.00,420,Wunderground v.1.15,2013-10-25 04:51:00,
2013-10-25 15:55:00,68.4,47.9,29.05,ENE,63,6.0,13.0,48,0.00,,,0.00,613,Wunderground v.1.15,2013-10-25 04:55:00,
2013-10-25 15:56:00,68.3,51.0,29.04,ENE,68,4.0,-999.0,54,0.00,,,0.00,420,Wunderground v.1.15,2013-10-25 04:56:00,
2013-10-25 16:00:00,68.8,48.3,29.05,West,279,5.0,5.0,48,0.00,,,0.00,568,Wunderground v.1.15,2013-10-25 05:00:00,
2013-10-25 16:01:00,68.3,51.0,29.04,ENE,68,4.0,-999.0,54,0.00,,,0.00,420,Wunderground v.1.15,2013-10-25 05:01:00,
2013-10-25 16:05:00,69.3,48.2,29.05,SSE,155,3.0,16.0,47,0.00,,,0.00,561,Wunderground v.1.15,2013-10-25 05:05:00,
2013-10-25 16:06:00,68.3,51.0,29.04,ENE,68,4.0,-999.0,54,0.00,,,0.00,420,Wunderground v.1.15,2013-10-25 05:06:00,
2013-10-25 16:11:00,68.3,51.0,29.04,ENE,68,4.0,-999.0,54,0.00,,,0.00,420,Wunderground v.1.15,2013-10-25 05:11:00,
2013-10-25 16:15:00,68.3,48.4,29.05,ENE,60,5.0,16.0,49,0.00,,,0.00,517,Wunderground v.1.15,2013-10-25 05:15:00,
2013-10-25 16:16:00,67.7,51.9,29.04,ENE,68,4.0,-999.0,57,0.00,,,0.00,304,Wunderground v.1.15,2013-10-25 05:16:00,
2013-10-25 16:20:00,68.2,48.8,29.05,ENE,71,5.0,16.0,50,0.00,,,0.00,524,Wunderground v.1.15,2013-10-25 05:20:00,
2013-10-25 16:21:00,67.7,51.9,29.04,ENE,68,4.0,-999.0,57,0.00,,,0.00,304,Wunderground v.1.15,2013-10-25 05:21:00,
2013-10-25 16:25:00,68.1,48.8,29.05,ESE,109,6.0,16.0,50,0.00,,,0.00,497,Wunderground v.1.15,2013-10-25 05:25:00,
2013-10-25 16:26:00,67.7,51.9,29.04,ENE,68,4.0,-999.0,57,0.00,,,0.00,304,Wunderground v.1.15,2013-10-25 05:26:00,
2013-10-25 16:30:00,68.1,48.2,29.05,NE,53,5.0,16.0,49,0.00,,,0.00,466,Wunderground v.1.15,2013-10-25 05:30:00,
2013-10-25 16:31:00,67.7,51.9,29.04,ENE,68,4.0,-999.0,57,0.00,,,0.00,304,Wunderground v.1.15,2013-10-25 05:31:00,
2013-10-25 16:36:00,67.7,51.9,29.04,ENE,68,4.0,-999.0,57,0.00,,,0.00,304,Wunderground v.1.15,2013-10-25 05:36:00,
2013-10-25 16:40:00,68.7,49.3,29.05,ENE,78,4.0,15.0,50,0.00,,,0.00,436,Wunderground v.1.15,2013-10-25 05:40:00,
2013-10-25 16:41:00,67.7,51.9,29.04,ENE,68,4.0,-999.0,57,0.00,,,0.00,304,Wunderground v.1.15,2013-10-25 05:41:00,
2013-10-25 16:46:00,66.9,52.6,29.04,ENE,68,4.0,-999.0,60,0.00,,,0.00,194,Wunderground v.1.15,2013-10-25 05:46:00,
2013-10-25 16:50:00,68.4,49.6,29.05,ENE,59,4.0,15.0,51,0.00,,,0.00,415,Wunderground v.1.15,2013-10-25 05:50:00,
2013-10-25 16:51:00,66.9,52.6,29.04,ENE,68,4.0,-999.0,60,0.00,,,0.00,194,Wunderground v.1.15,2013-10-25 05:51:00,
2013-10-25 16:55:00,68.1,50.3,29.04,NE,55,5.0,15.0,53,0.00,,,0.00,394,Wunderground v.1.15,2013-10-25 05:55:00,
2013-10-25 16:56:00,66.9,52.6,29.04,ENE,68,4.0,-999.0,60,0.00,,,0.00,194,Wunderground v.1.15,2013-10-25 05:56:00,
2013-10-25 17:00:00,68.0,50.2,29.04,NNE,29,5.0,15.0,53,0.00,,,0.00,378,Wunderground v.1.15,2013-10-25 06:00:00,
2013-10-25 17:01:00,66.9,52.6,29.04,ENE,68,4.0,-999.0,60,0.00,,,0.00,194,Wunderground v.1.15,2013-10-25 06:01:00,
2013-10-25 17:05:00,68.0,50.7,29.04,East,79,5.0,17.0,54,0.00,,,0.00,357,Wunderground v.1.15,2013-10-25 06:05:00,
2013-10-25 17:06:00,66.9,52.6,29.04,ENE,68,4.0,-999.0,60,0.00,,,0.00,194,Wunderground v.1.15,2013-10-25 06:06:00,
2013-10-25 17:10:00,68.2,50.9,29.04,East,79,4.0,4.0,54,0.00,,,0.00,336,Wunderground v.1.15,2013-10-25 06:10:00,
2013-10-25 17:11:00,66.9,52.6,29.04,ENE,68,4.0,-999.0,60,0.00,,,0.00,194,Wunderground v.1.15,2013-10-25 06:11:00,
2013-10-25 17:16:00,66.4,52.5,29.04,ENE,68,4.0,-999.0,61,0.00,,,0.00,104,Wunderground v.1.15,2013-10-25 06:16:00,
2013-10-25 17:20:00,67.3,51.1,29.04,SE,126,6.0,6.0,56,0.00,,,0.00,287,Wunderground v.1.15,2013-10-25 06:20:00,
2013-10-25 17:21:00,66.4,52.5,29.04,ENE,68,4.0,-999.0,61,0.00,,,0.00,104,Wunderground v.1.15,2013-10-25 06:21:00,
2013-10-25 17:25:00,67.4,51.2,29.04,NW,318,4.0,17.0,56,0.00,,,0.00,272,Wunderground v.1.15,2013-10-25 06:25:00,
2013-10-25 17:26:00,66.4,52.5,29.04,ENE,68,4.0,-999.0,61,0.00,,,0.00,104,Wunderground v.1.15,2013-10-25 06:26:00,
2013-10-25 17:30:00,67.4,51.6,29.04,ENE,57,3.0,17.0,57,0.00,,,0.00,253,Wunderground v.1.15,2013-10-25 06:30:00,
2013-10-25 17:31:00,66.4,52.5,29.04,ENE,68,4.0,-999.0,61,0.00,,,0.00,104,Wunderground v.1.15,2013-10-25 06:31:00,
2013-10-25 17:36:00,66.4,52.5,29.04,ENE,68,4.0,-999.0,61,0.00,,,0.00,104,Wunderground v.1.15,2013-10-25 06:36:00,
2013-10-25 17:40:00,67.2,51.9,29.04,East,80,4.0,15.0,58,0.00,,,0.00,221,Wunderground v.1.15,2013-10-25 06:40:00,
2013-10-25 17:41:00,66.4,52.5,29.04,ENE,68,4.0,-999.0,61,0.00,,,0.00,104,Wunderground v.1.15,2013-10-25 06:41:00,
2013-10-25 17:45:00,67.1,52.3,29.04,ENE,59,4.0,15.0,59,0.00,,,0.00,200,Wunderground v.1.15,2013-10-25 06:45:00,
2013-10-25 17:46:00,65.8,52.4,29.05,ENE,68,3.0,-999.0,62,0.00,,,0.00,33,Wunderground v.1.15,2013-10-25 06:46:00,
2013-10-25 17:51:00,65.8,52.4,29.05,ENE,68,3.0,-999.0,62,0.00,,,0.00,33,Wunderground v.1.15,2013-10-25 06:51:00,
2013-10-25 17:55:00,66.6,52.3,29.04,ENE,64,5.0,11.0,60,0.00,,,0.00,165,Wunderground v.1.15,2013-10-25 06:55:00,
2013-10-25 17:56:00,65.8,52.4,29.05,ENE,68,3.0,-999.0,62,0.00,,,0.00,33,Wunderground v.1.15,2013-10-25 06:56:00,
2013-10-25 18:00:00,66.7,52.4,29.04,East,84,3.0,3.0,60,0.00,,,0.00,148,Wunderground v.1.15,2013-10-25 07:00:00,
2013-10-25 18:01:00,65.8,52.4,29.05,ENE,68,3.0,-999.0,62,0.00,,,0.00,33,Wunderground v.1.15,2013-10-25 07:01:00,
2013-10-25 18:05:00,66.7,51.9,29.04,East,98,3.0,4.0,59,0.00,,,0.00,137,Wunderground v.1.15,2013-10-25 07:05:00,
2013-10-25 18:06:00,65.8,52.4,29.05,ENE,68,3.0,-999.0,62,0.00,,,0.00,33,Wunderground v.1.15,2013-10-25 07:06:00,
2013-10-25 18:10:00,66.5,51.7,29.04,NE,53,4.0,4.0,59,0.00,,,0.00,127,Wunderground v.1.15,2013-10-25 07:10:00,
2013-10-25 18:11:00,65.8,52.4,29.05,ENE,68,3.0,-999.0,62,0.00,,,0.00,33,Wunderground v.1.15,2013-10-25 07:11:00,
2013-10-25 18:16:00,65.0,53.8,29.05,NE,45,3.0,-999.0,67,0.00,,,0.00,3,Wunderground v.1.15,2013-10-25 07:16:00,
2013-10-25 18:20:00,66.3,52.0,29.04,ENE,73,5.0,15.0,60,0.00,,,0.00,93,Wunderground v.1.15,2013-10-25 07:20:00,
2013-10-25 18:21:00,65.0,53.8,29.05,NE,45,3.0,-999.0,67,0.00,,,0.00,3,Wunderground v.1.15,2013-10-25 07:21:00,
2013-10-25 18:25:00,66.1,52.3,29.04,NNE,26,5.0,15.0,61,0.00,,,0.00,79,Wunderground v.1.15,2013-10-25 07:25:00,
2013-10-25 18:26:00,65.0,53.8,29.05,NE,45,3.0,-999.0,67,0.00,,,0.00,3,Wunderground v.1.15,2013-10-25 07:26:00,
2013-10-25 18:30:00,66.1,52.3,29.04,East,83,4.0,15.0,61,0.00,,,0.00,69,Wunderground v.1.15,2013-10-25 07:30:00,
2013-10-25 18:31:00,65.0,53.8,29.05,NE,45,3.0,-999.0,67,0.00,,,0.00,3,Wunderground v.1.15,2013-10-25 07:31:00,
2013-10-25 18:36:00,65.0,53.8,29.05,NE,45,3.0,-999.0,67,0.00,,,0.00,3,Wunderground v.1.15,2013-10-25 07:36:00,
2013-10-25 18:40:00,65.9,52.1,29.04,East,96,5.0,16.0,61,0.00,,,0.00,44,Wunderground v.1.15,2013-10-25 07:40:00,
2013-10-25 18:41:00,65.0,53.8,29.05,NE,45,3.0,-999.0,67,0.00,,,0.00,3,Wunderground v.1.15,2013-10-25 07:41:00,
2013-10-25 18:45:00,65.9,52.1,29.04,ENE,61,3.0,16.0,61,0.00,,,0.00,33,Wunderground v.1.15,2013-10-25 07:45:00,
2013-10-25 18:46:00,64.5,53.7,29.05,NE,45,3.0,-999.0,68,0.00,,,0.00,0,Wunderground v.1.15,2013-10-25 07:46:00,
2013-10-25 18:51:00,64.5,53.7,29.05,NE,45,3.0,-999.0,68,0.00,,,0.00,0,Wunderground v.1.15,2013-10-25 07:51:00,
2013-10-25 18:55:00,65.7,51.9,29.04,ENE,60,4.0,16.0,61,0.00,,,0.00,19,Wunderground v.1.15,2013-10-25 07:55:00,
2013-10-25 18:56:00,64.5,53.7,29.05,NE,45,3.0,-999.0,68,0.00,,,0.00,0,Wunderground v.1.15,2013-10-25 07:56:00,
2013-10-25 19:00:00,65.5,52.1,29.05,ENE,71,4.0,4.0,62,0.00,,,0.00,14,Wunderground v.1.15,2013-10-25 08:00:00,
2013-10-25 19:01:00,64.5,53.7,29.05,NE,45,3.0,-999.0,68,0.00,,,0.00,0,Wunderground v.1.15,2013-10-25 08:01:00,
2013-10-25 19:05:00,65.3,51.9,29.05,NE,47,3.0,13.0,62,0.00,,,0.00,11,Wunderground v.1.15,2013-10-25 08:05:00,
2013-10-25 19:06:00,64.5,53.7,29.05,NE,45,3.0,-999.0,68,0.00,,,0.00,0,Wunderground v.1.15,2013-10-25 08:06:00,
2013-10-25 19:10:00,65.2,52.3,29.05,East,84,4.0,4.0,63,0.00,,,0.00,5,Wunderground v.1.15,2013-10-25 08:10:00,
2013-10-25 19:11:00,64.5,53.7,29.05,NE,45,3.0,-999.0,68,0.00,,,0.00,0,Wunderground v.1.15,2013-10-25 08:11:00,
2013-10-25 19:15:00,65.0,52.5,29.05,SE,131,4.0,13.0,64,0.00,,,0.00,0,Wunderground v.1.15,2013-10-25 08:15:00,
2013-10-25 19:16:00,64.3,53.9,29.06,NE,45,3.0,-999.0,69,0.00,,,0.00,0,Wunderground v.1.15,2013-10-25 08:16:00,
2013-10-25 19:21:00,64.3,53.9,29.06,NE,45,3.0,-999.0,69,0.00,,,0.00,0,Wunderground v.1.15,2013-10-25 08:21:00,
2013-10-25 19:25:00,64.8,53.2,29.05,NE,51,3.0,4.0,66,0.00,,,0.00,0,Wunderground v.1.15,2013-10-25 08:25:00,
2013-10-25 19:26:00,64.3,53.9,29.06,NE,45,3.0,-999.0,69,0.00,,,0.00,0,Wunderground v.1.15,2013-10-25 08:26:00,
2013-10-25 19:30:00,64.8,53.2,29.05,East,80,3.0,3.0,66,0.00,,,0.00,0,Wunderground v.1.15,2013-10-25 08:30:00,
2013-10-25 19:31:00,64.3,53.9,29.06,NE,45,3.0,-999.0,69,0.00,,,0.00,0,Wunderground v.1.15,2013-10-25 08:31:00,
2013-10-25 19:36:00,64.3,53.9,29.06,NE,45,3.0,-999.0,69,0.00,,,0.00,0,Wunderground v.1.15,2013-10-25 08:36:00,
2013-10-25 19:40:00,64.6,53.8,29.05,NE,44,3.0,14.0,68,0.00,,,0.00,0,Wunderground v.1.15,2013-10-25 08:40:00,
2013-10-25 19:41:00,64.3,53.9,29.06,NE,45,3.0,-999.0,69,0.00,,,0.00,0,Wunderground v.1.15,2013-10-25 08:41:00,
2013-10-25 19:45:00,64.6,53.8,29.06,ENE,71,3.0,14.0,68,0.00,,,0.00,0,Wunderground v.1.15,2013-10-25 08:45:00,
2013-10-25 19:46:00,63.8,53.4,29.07,NE,45,2.0,-999.0,69,0.00,,,0.00,0,Wunderground v.1.15,2013-10-25 08:46:00,
2013-10-25 19:50:00,64.5,53.7,29.05,ENE,59,3.0,14.0,68,0.00,,,0.00,0,Wunderground v.1.15,2013-10-25 08:50:00,
2013-10-25 19:51:00,63.8,53.4,29.07,NE,45,2.0,-999.0,69,0.00,,,0.00,0,Wunderground v.1.15,2013-10-25 08:51:00,
2013-10-25 19:56:00,63.8,53.4,29.07,NE,45,2.0,-999.0,69,0.00,,,0.00,0,Wunderground v.1.15,2013-10-25 08:56:00,
2013-10-25 20:00:00,64.4,54.0,29.05,ENE,76,3.0,14.0,69,0.00,,,0.00,0,Wunderground v.1.15,2013-10-25 09:00:00,
2013-10-25 20:01:00,63.8,53.4,29.07,NE,45,2.0,-999.0,69,0.00,,,0.00,0,Wunderground v.1.15,2013-10-25 09:01:00,
2013-10-25 20:05:00,64.5,53.7,29.05,NE,43,5.0,14.0,68,0.00,,,0.00,0,Wunderground v.1.15,2013-10-25 09:05:00,
2013-10-25 20:06:00,63.8,53.4,29.07,NE,45,2.0,-999.0,69,0.00,,,0.00,0,Wunderground v.1.15,2013-10-25 09:06:00,
2013-10-25 20:11:00,63.8,53.4,29.07,NE,45,2.0,-999.0,69,0.00,,,0.00,0,Wunderground v.1.15,2013-10-25 09:11:00,
2013-10-25 20:15:00,64.3,53.9,29.06,NNE,22,3.0,14.0,69,0.00,,,0.00,0,Wunderground v.1.15,2013-10-25 09:15:00,
2013-10-25 20:16:00,63.4,52.7,29.08,NNE,23,2.0,-999.0,68,0.00,,,0.00,0,Wunderground v.1.15,2013-10-25 09:16:00,
2013-10-25 20:20:00,64.2,53.8,29.06,ENE,62,3.0,14.0,69,0.00,,,0.00,0,Wunderground v.1.15,2013-10-25 09:20:00,
2013-10-25 20:21:00,63.4,52.7,29.08,NNE,23,2.0,-999.0,68,0.00,,,0.00,0,Wunderground v.1.15,2013-10-25 09:21:00,
2013-10-25 20:25:00,64.1,53.7,29.06,ENE,76,3.0,14.0,69,0.00,,,0.00,0,Wunderground v.1.15,2013-10-25 09:25:00,
2013-10-25 20:26:00,63.4,52.7,29.08,NNE,23,2.0,-999.0,68,0.00,,,0.00,0,Wunderground v.1.15,2013-10-25 09:26:00,
2013-10-25 20:31:00,63.4,52.7,29.08,NNE,23,2.0,-999.0,68,0.00,,,0.00,0,Wunderground v.1.15,2013-10-25 09:31:00,
2013-10-25 20:35:00,64.0,53.6,29.06,NNE,30,2.0,6.0,69,0.00,,,0.00,0,Wunderground v.1.15,2013-10-25 09:35:00,
2013-10-25 20:36:00,63.4,52.7,29.08,NNE,23,2.0,-999.0,68,0.00,,,0.00,0,Wunderground v.1.15,2013-10-25 09:36:00,
2013-10-25 20:41:00,63.4,52.7,29.08,NNE,23,2.0,-999.0,68,0.00,,,0.00,0,Wunderground v.1.15,2013-10-25 09:41:00,
2013-10-25 20:45:00,63.9,53.5,29.06,ENE,70,2.0,8.0,69,0.00,,,0.00,0,Wunderground v.1.15,2013-10-25 09:45:00,
2013-10-25 20:46:00,62.9,52.6,29.08,NNE,23,1.0,-999.0,69,0.00,,,0.00,0,Wunderground v.1.15,2013-10-25 09:46:00,
2013-10-25 20:50:00,63.7,53.3,29.07,ENE,75,2.0,2.0,69,0.00,,,0.00,0,Wunderground v.1.15,2013-10-25 09:50:00,
2013-10-25 20:51:00,62.9,52.6,29.08,NNE,23,1.0,-999.0,69,0.00,,,0.00,0,Wunderground v.1.15,2013-10-25 09:51:00,
2013-10-25 20:55:00,63.6,53.2,29.07,NE,38,2.0,4.0,69,0.00,,,0.00,0,Wunderground v.1.15,2013-10-25 09:55:00,
2013-10-25 20:56:00,62.9,52.6,29.08,NNE,23,1.0,-999.0,69,0.00,,,0.00,0,Wunderground v.1.15,2013-10-25 09:56:00,
2013-10-25 21:00:00,63.6,53.2,29.07,North,355,3.0,3.0,69,0.00,,,0.00,0,Wunderground v.1.15,2013-10-25 10:00:00,
2013-10-25 21:01:00,62.9,52.6,29.08,NNE,23,1.0,-999.0,69,0.00,,,0.00,0,Wunderground v.1.15,2013-10-25 10:01:00,
2013-10-25 21:05:00,63.6,53.2,29.07,ENE,61,3.0,11.0,69,0.00,,,0.00,0,Wunderground v.1.15,2013-10-25 10:05:00,
2013-10-25 21:06:00,62.9,52.6,29.08,NNE,23,1.0,-999.0,69,0.00,,,0.00,0,Wunderground v.1.15,2013-10-25 10:06:00,
2013-10-25 21:11:00,62.9,52.6,29.08,NNE,23,1.0,-999.0,69,0.00,,,0.00,0,Wunderground v.1.15,2013-10-25 10:11:00,
2013-10-25 21:15:00,63.5,52.7,29.08,NNE,26,3.0,11.0,68,0.00,,,0.00,0,Wunderground v.1.15,2013-10-25 10:15:00,
2013-10-25 21:16:00,61.8,52.7,29.08,NW,315,0.0,-999.0,72,0.00,,,0.00,0,Wunderground v.1.15,2013-10-25 10:16:00,
2013-10-25 21:20:00,63.4,52.7,29.08,NNW,348,2.0,2.0,68,0.00,,,0.00,0,Wunderground v.1.15,2013-10-25 10:20:00,
2013-10-25 21:21:00,61.8,52.7,29.08,NW,315,0.0,-999.0,72,0.00,,,0.00,0,Wunderground v.1.15,2013-10-25 10:21:00,
2013-10-25 21:25:00,63.3,52.6,29.07,WNW,283,2.0,11.0,68,0.00,,,0.00,0,Wunderground v.1.15,2013-10-25 10:25:00,
2013-10-25 21:26:00,61.8,52.7,29.08,NW,315,0.0,-999.0,72,0.00,,,0.00,0,Wunderground v.1.15,2013-10-25 10:26:00,
2013-10-25 21:30:00,63.2,52.5,29.08,ENE,78,1.0,11.0,68,0.00,,,0.00,0,Wunderground v.1.15,2013-10-25 10:30:00,
2013-10-25 21:31:00,61.8,52.7,29.08,NW,315,0.0,-999.0,72,0.00,,,0.00,0,Wunderground v.1.15,2013-10-25 10:31:00,
2013-10-25 21:36:00,61.8,52.7,29.08,NW,315,0.0,-999.0,72,0.00,,,0.00,0,Wunderground v.1.15,2013-10-25 10:36:00,
2013-10-25 21:40:00,63.0,52.3,29.08,ENE,67,2.0,2.0,68,0.00,,,0.00,0,Wunderground v.1.15,2013-10-25 10:40:00,
2013-10-25 21:41:00,61.8,52.7,29.08,NW,315,0.0,-999.0,72,0.00,,,0.00,0,Wunderground v.1.15,2013-10-25 10:41:00,
2013-10-25 21:46:00,61.2,52.1,29.08,SSW,203,0.0,-999.0,72,0.00,,,0.00,0,Wunderground v.1.15,2013-10-25 10:46:00,
2013-10-25 21:50:00,62.8,52.1,29.08,NW,306,1.0,11.0,68,0.00,,,0.00,0,Wunderground v.1.15,2013-10-25 10:50:00,
2013-10-25 21:51:00,61.2,52.1,29.08,SSW,203,0.0,-999.0,72,0.00,,,0.00,0,Wunderground v.1.15,2013-10-25 10:51:00,
2013-10-25 21:55:00,62.6,52.3,29.08,NW,306,1.0,11.0,69,0.00,,,0.00,0,Wunderground v.1.15,2013-10-25 10:55:00,
2013-10-25 21:56:00,61.2,52.1,29.08,SSW,203,0.0,-999.0,72,0.00,,,0.00,0,Wunderground v.1.15,2013-10-25 10:56:00,
2013-10-25 22:00:00,62.5,52.2,29.08,NW,318,1.0,1.0,69,0.00,,,0.00,0,Wunderground v.1.15,2013-10-25 11:00:00,
2013-10-25 22:01:00,61.2,52.1,29.08,SSW,203,0.0,-999.0,72,0.00,,,0.00,0,Wunderground v.1.15,2013-10-25 11:01:00,
2013-10-25 22:05:00,62.3,52.0,29.08,NW,318,0.0,5.0,69,0.00,,,0.00,0,Wunderground v.1.15,2013-10-25 11:05:00,
2013-10-25 22:06:00,61.2,52.1,29.08,SSW,203,0.0,-999.0,72,0.00,,,0.00,0,Wunderground v.1.15,2013-10-25 11:06:00,
2013-10-25 22:11:00,61.2,52.1,29.08,SSW,203,0.0,-999.0,72,0.00,,,0.00,0,Wunderground v.1.15,2013-10-25 11:11:00,
2013-10-25 22:15:00,61.8,51.9,29.08,NW,318,0.0,5.0,70,0.00,,,0.00,0,Wunderground v.1.15,2013-10-25 11:15:00,
2013-10-25 22:16:00,60.7,52.4,29.08,N/A,-737280,0.0,-999.0,74,0.00,,,0.00,0,Wunderground v.1.15,2013-10-25 11:16:00,
2013-10-25 22:20:00,61.6,51.7,29.08,NW,318,0.0,5.0,70,0.00,,,0.00,0,Wunderground v.1.15,2013-10-25 11:20:00,
2013-10-25 22:21:00,60.7,52.4,29.08,N/A,-737280,0.0,-999.0,74,0.00,,,0.00,0,Wunderground v.1.15,2013-10-25 11:21:00,
2013-10-25 22:25:00,61.4,51.9,29.08,NW,318,0.0,5.0,71,0.00,,,0.00,0,Wunderground v.1.15,2013-10-25 11:25:00,
2013-10-25 22:26:00,60.7,52.4,29.08,N/A,-737280,0.0,-999.0,74,0.00,,,0.00,0,Wunderground v.1.15,2013-10-25 11:26:00,
2013-10-25 22:30:00,61.2,51.7,29.08,NW,318,0.0,5.0,71,0.00,,,0.00,0,Wunderground v.1.15,2013-10-25 11:30:00,
2013-10-25 22:31:00,60.7,52.4,29.08,N/A,-737280,0.0,-999.0,74,0.00,,,0.00,0,Wunderground v.1.15,2013-10-25 11:31:00,
2013-10-25 22:36:00,60.7,52.4,29.08,N/A,-737280,0.0,-999.0,74,0.00,,,0.00,0,Wunderground v.1.15,2013-10-25 11:36:00,
2013-10-25 22:40:00,61.2,52.1,29.09,NW,317,0.0,1.0,72,0.00,,,0.00,0,Wunderground v.1.15,2013-10-25 11:40:00,
2013-10-25 22:41:00,60.7,52.4,29.08,N/A,-737280,0.0,-999.0,74,0.00,,,0.00,0,Wunderground v.1.15,2013-10-25 11:41:00,
2013-10-25 22:45:00,61.2,52.1,29.09,NW,318,0.0,1.0,72,0.00,,,0.00,0,Wunderground v.1.15,2013-10-25 11:45:00,
2013-10-25 22:46:00,59.7,52.5,29.08,N/A,-737280,0.0,-999.0,77,0.00,,,0.00,0,Wunderground v.1.15,2013-10-25 11:46:00,
2013-10-25 22:51:00,59.7,52.5,29.08,N/A,-737280,0.0,-999.0,77,0.00,,,0.00,0,Wunderground v.1.15,2013-10-25 11:51:00,
2013-10-25 22:55:00,61.3,52.6,29.08,SSW,205,0.0,1.0,73,0.00,,,0.00,0,Wunderground v.1.15,2013-10-25 11:55:00,
2013-10-25 22:56:00,59.7,52.5,29.08,N/A,-737280,0.0,-999.0,77,0.00,,,0.00,0,Wunderground v.1.15,2013-10-25 11:56:00,
2013-10-25 23:00:00,61.4,52.7,29.08,SSW,205,0.0,1.0,73,0.00,,,0.00,0,Wunderground v.1.15,2013-10-25 12:00:00,
2013-10-25 23:01:00,59.7,52.5,29.08,N/A,-737280,0.0,-999.0,77,0.00,,,0.00,0,Wunderground v.1.15,2013-10-25 12:01:00,
2013-10-25 23:05:00,61.4,52.3,29.08,SSW,205,0.0,2.0,72,0.00,,,0.00,0,Wunderground v.1.15,2013-10-25 12:05:00,
2013-10-25 23:06:00,59.7,52.5,29.08,N/A,-737280,0.0,-999.0,77,0.00,,,0.00,0,Wunderground v.1.15,2013-10-25 12:06:00,
2013-10-25 23:11:00,59.7,52.5,29.08,N/A,-737280,0.0,-999.0,77,0.00,,,0.00,0,Wunderground v.1.15,2013-10-25 12:11:00,
2013-10-25 23:15:00,60.8,51.7,29.08,SSW,206,0.0,2.0,72,0.00,,,0.00,0,Wunderground v.1.15,2013-10-25 12:15:00,
2013-10-25 23:16:00,58.7,52.5,29.08,N/A,-737280,0.0,-999.0,80,0.00,,,0.00,0,Wunderground v.1.15,2013-10-25 12:16:00,
2013-10-25 23:20:00,60.5,51.8,29.08,SSW,206,0.0,2.0,73,0.00,,,0.00,0,Wunderground v.1.15,2013-10-25 12:20:00,
2013-10-25 23:21:00,58.7,52.5,29.08,N/A,-737280,0.0,-999.0,80,0.00,,,0.00,0,Wunderground v.1.15,2013-10-25 12:21:00,
2013-10-25 23:25:00,60.3,51.6,29.08,SSW,206,0.0,2.0,73,0.00,,,0.00,0,Wunderground v.1.15,2013-10-25 12:25:00,
2013-10-25 23:26:00,58.7,52.5,29.08,N/A,-737280,0.0,-999.0,80,0.00,,,0.00,0,Wunderground v.1.15,2013-10-25 12:26:00,
2013-10-25 23:30:00,60.1,51.8,29.08,SSW,206,0.0,2.0,74,0.00,,,0.00,0,Wunderground v.1.15,2013-10-25 12:30:00,
2013-10-25 23:31:00,58.7,52.5,29.08,N/A,-737280,0.0,-999.0,80,0.00,,,0.00,0,Wunderground v.1.15,2013-10-25 12:31:00,
2013-10-25 23:36:00,58.7,52.5,29.08,N/A,-737280,0.0,-999.0,80,0.00,,,0.00,0,Wunderground v.1.15,2013-10-25 12:36:00,
2013-10-25 23:40:00,59.5,51.2,29.08,SSW,206,0.0,0.0,74,0.00,,,0.00,0,Wunderground v.1.15,2013-10-25 12:40:00,
2013-10-25 23:41:00,58.7,52.5,29.08,N/A,-737280,0.0,-999.0,80,0.00,,,0.00,0,Wunderground v.1.15,2013-10-25 12:41:00,
2013-10-25 23:45:00,59.4,51.5,29.08,SSW,206,0.0,0.0,75,0.00,,,0.00,0,Wunderground v.1.15,2013-10-25 12:45:00,
2013-10-25 23:46:00,57.4,51.9,29.08,SSW,203,0.0,-999.0,82,0.00,,,0.00,0,Wunderground v.1.15,2013-10-25 12:46:00,
2013-10-25 23:51:00,57.4,51.9,29.08,SSW,203,0.0,-999.0,82,0.00,,,0.00,0,Wunderground v.1.15,2013-10-25 12:51:00,
2013-10-25 23:55:00,59.8,52.6,29.08,SSW,206,0.0,0.0,77,0.00,,,0.00,0,Wunderground v.1.15,2013-10-25 12:55:00,
2013-10-25 23:56:00,57.4,51.9,29.08,SSW,203,0.0,-999.0,82,0.00,,,0.00,0,Wunderground v.1.15,2013-10-25 12:56:00,